Latest Coastal Weather Observations for Lucinda

IDQ60701

Issued at 11:31 pm EST Saturday 25 March 2017 (issued every 10 minutes, with the page automatically refreshed every 10 minutes)

About coastal observations | Map of coastal stations | Coastal observations for QLD | Marine services | Other Formats
Station Details ID: 032141 Name: LUCINDA POINT Lat: -18.52 Lon: 146.39 Height: 10.0 m
Data from the previous 72 hours. | See also: Recent months at Lucinda
Date/Time
EST
Temp
°C
Wind Pressure Rain since
9am
mm
Weather Cloud Vis
km
Sea
Height
m
Swell
Dir  Spd
kts
Gust
kts
hPa Trend Height
m
Period
s
Dir
25/11:30pm 29.4 S 10 11 1009.0 - 0.0 - - - - - - -
25/11:00pm 29.4 S 9 12 1009.4 - 0.0 - - - - - - -
25/10:30pm 29.4 SSE 7 11 1009.6 - 0.0 - - - - - - -
25/10:00pm 29.6 SE 11 18 1009.5 - 0.0 - - - - - - -
25/09:30pm 29.4 SE 7 13 1009.5 - 0.0 - - - - - - -
25/09:00pm 29.3 SSE 7 12 1009.3 - 0.0 - - - - - - -
25/08:30pm 29.3 SE 8 13 1009.0 - 0.0 - - - - - - -
25/08:00pm 29.0 SE 9 16 1008.8 - 0.0 - - - - - - -
25/07:30pm 29.1 SE 9 16 1008.4 - 0.0 - - - - - - -
25/07:00pm 29.5 ESE 8 16 1008.2 - 0.0 - - - - - - -
25/06:30pm 29.4 ESE 10 15 1007.6 - 0.0 - - - - - - -
25/06:00pm 29.3 E 11 13 1007.2 - 0.0 - - - - - - -
25/05:30pm 30.2 E 6 10 1007.0 - 0.0 - - - - - - -
25/05:00pm 30.7 NE 2 4 1006.8 - 0.0 - - - - - - -
25/04:30pm 31.4 ESE 5 7 1006.6 - 0.0 - - - - - - -
25/04:00pm 30.6 ESE 7 9 1006.5 - 0.0 - - - - - - -
25/03:30pm 31.3 ESE 5 9 1006.6 - 0.0 - - - - - - -
25/03:00pm 30.9 ESE 5 8 1006.9 - 0.0 - - - - - - -
25/02:30pm 31.2 SE 6 10 1007.1 - 0.0 - - - - - - -
25/02:00pm 30.4 S 7 10 1007.5 - 0.0 - - - - - - -
25/01:30pm 29.6 S 11 14 1007.6 - 0.0 - - - - - - -
25/01:00pm 29.4 S 12 16 1007.9 - 0.0 - - - - - - -
25/12:30pm 29.1 S 13 16 1008.2 - 0.0 - - - - - - -
25/12:00pm 28.9 S 13 16 1008.7 - 0.0 - - - - - - -
25/11:30am 28.9 S 14 16 1009.2 - 0.0 - - - - - - -
25/11:00am 28.9 S 14 18 1009.6 - 0.0 - - - - - - -
25/10:30am 28.9 S 15 17 1009.6 - 0.0 - - - - - - -
25/10:00am 28.9 S 13 17 1009.7 - 0.0 - - - - - - -
25/09:30am 27.6 SSW 11 13 1009.9 - 0.0 - - - - - - -
25/09:00am 27.4 SSW 10 12 1009.8 - 21.2 - - - - - - -
25/08:30am 26.9 SW 11 12 1009.5 - 21.2 - - - - - - -
25/08:00am 26.3 SW 11 13 1009.3 - 21.2 - - - - - - -
25/07:30am 25.7 WSW 11 14 1008.9 - 21.2 - - - - - - -
25/07:00am 26.2 SW 11 13 1008.6 - 21.2 - - - - - - -
25/06:30am 25.8 SW 11 12 1008.3 - 21.2 - - - - - - -
25/06:00am 25.8 SW 11 12 1008.1 - 21.2 - - - - - - -
25/05:30am 25.8 SW 10 13 1008.0 - 21.2 - - - - - - -
25/05:00am 25.8 WSW 12 13 1007.8 - 21.2 - - - - - - -
25/04:30am 26.3 WSW 10 11 1007.7 - 21.2 - - - - - - -
25/04:00am 26.1 WSW 10 12 1007.7 - 21.2 - - - - - - -
25/03:30am 26.1 WSW 11 13 1007.8 - 21.2 - - - - - - -
25/03:00am 25.7 SW 11 12 1008.0 - 21.2 - - - - - - -
25/02:30am 25.7 SW 11 14 1008.1 - 21.2 - - - - - - -
25/02:00am 25.9 WSW 12 13 1008.5 - 21.2 - - - - - - -
25/01:30am 25.8 WSW 12 14 1008.7 - 21.2 - - - - - - -
25/01:00am 26.2 WSW 11 13 1009.0 - 21.2 - - - - - - -
25/12:30am 26.5 WSW 11 12 1009.1 - 21.2 - - - - - - -
25/12:00am 25.9 WSW 10 13 1009.3 - 21.2 Rain - - - - - -
 
Date/Time
EST
Temp
°C
Wind Pressure Rain since
9am
mm
Weather Cloud Vis
km
Sea
Height
m
Swell
Dir  Spd
kts
Gust
kts
hPa Trend Height
m
Period
s
Dir
24/11:30pm 26.0 WSW 12 13 1009.6 - 19.2 - - - - - - -
24/11:00pm 25.9 WSW 13 14 1009.7 - 19.2 - - - - - - -
24/10:30pm 25.9 W 11 13 1010.0 - 19.2 - - - - - - -
24/10:00pm 27.4 S 5 7 1009.6 - 19.2 - - - - - - -
24/09:30pm 28.1 S 5 7 1009.3 - 15.8 - - - - - - -
24/09:00pm 27.9 S 5 8 1009.4 - 15.8 - - - - - - -
24/08:30pm 28.2 SE 6 10 1009.2 - 15.8 - - - - - - -
24/08:00pm 28.1 SSE 4 6 1009.1 - 15.8 - - - - - - -
24/07:30pm 28.0 SE 7 11 1008.9 - 15.8 - - - - - - -
24/07:00pm 28.0 ESE 7 11 1008.6 - 15.8 - - - - - - -
24/06:30pm 28.2 SE 10 16 1008.3 - 15.8 - - - - - - -
24/06:00pm 27.8 SE 9 15 1008.0 - 15.8 - - - - - - -
24/05:30pm 27.4 SSE 4 7 1007.8 - 15.8 - - - - - - -
24/05:00pm 26.2 ESE 6 8 1007.6 - 15.8 - - - - - - -
24/04:30pm 26.2 SE 11 23 1007.1 - 11.4 - - - - - - -
24/04:00pm 27.8 S 9 11 1007.0 - 10.6 - - - - - - -
24/03:30pm 26.6 WSW 6 8 1007.1 - 10.6 - - - - - - -
24/03:00pm 26.5 WSW 7 10 1007.3 - 10.6 - - - - - - -
24/02:30pm 27.4 SSE 6 10 1007.5 - 10.6 - - - - - - -
24/02:00pm 26.6 SSE 8 12 1008.1 - 10.6 - - - - - - -
24/01:30pm 27.1 S 7 10 1008.4 - 10.6 - - - - - - -
24/01:00pm 26.7 SSW 9 11 1008.7 - 10.6 - - - - - - -
24/12:30pm 26.1 S 10 14 1008.9 - 10.6 - - - - - - -
24/12:00pm 26.2 SSE 9 15 1009.3 - 10.6 Recent precip. - - - - - -
24/11:30am 26.2 SE 10 18 1009.8 - 10.4 - - - - - - -
24/11:00am 26.2 SSW 12 16 1010.4 - 7.0 - - - - - - -
24/10:30am 25.4 SW 14 16 1010.3 - 3.4 - - - - - - -
24/10:00am 25.0 WSW 12 15 1010.3 - 3.0 - - - - - - -
24/09:30am 25.4 SW 14 16 1010.3 - 0.0 - - - - - - -
24/09:00am 25.2 SW 13 14 1010.3 - 5.2 Recent precip. - - - - - -
24/08:30am 25.2 WSW 13 14 1010.0 - 5.0 - - - - - - -
24/08:00am 24.7 WSW 12 14 1009.9 - 5.0 - - - - - - -
24/07:30am 24.4 W 10 13 1009.7 - 5.0 - - - - - - -
24/07:00am 24.2 WSW 13 16 1009.3 - 5.0 - - - - - - -
24/06:30am 24.3 W 13 15 1009.1 - 4.4 - - - - - - -
24/06:00am 24.0 W 13 16 1008.7 - 3.2 Rain - - - - - -
24/05:30am 23.9 WSW 13 17 1008.5 - 2.8 - - - - - - -
24/05:00am 23.8 W 15 17 1008.1 - 2.6 - - - - - - -
24/04:30am 24.5 WSW 14 16 1008.0 - 2.2 - - - - - - -
24/04:00am 24.0 WSW 13 17 1007.8 - 2.2 - - - - - - -
24/03:30am 24.2 WSW 13 16 1007.9 - 2.2 - - - - - - -
24/03:00am 24.3 WSW 14 17 1008.2 - 2.2 Recent precip. - - - - - -
24/02:30am 24.7 WSW 13 15 1008.4 - 1.8 - - - - - - -
24/02:00am 25.1 SW 11 14 1008.7 - 1.2 - - - - - - -
24/01:30am 26.7 S 12 16 1008.9 - 0.2 - - - - - - -
24/01:00am 26.9 S 5 7 1009.0 - 0.2 - - - - - - -
24/12:30am 26.3 SE 9 15 1008.9 - 0.2 - - - - - - -
24/12:00am 25.4 S 16 24 1009.9 - 0.2 - - - - - - -
 
Date/Time
EST
Temp
°C
Wind Pressure Rain since
9am
mm
Weather Cloud Vis
km
Sea
Height
m
Swell
Dir  Spd
kts
Gust
kts
hPa Trend Height
m
Period
s
Dir
23/11:30pm 26.0 S 26 36 1009.6 - 0.2 - - - - - - -
23/11:25pm 25.8 SSE 19 34 1009.7 - 0.2 - - - - - - -
23/11:21pm 27.1 SE 13 26 1009.7 - 0.2 - - - - - - -
23/11:00pm 28.4 ESE 13 19 1009.5 - 0.2 - - - - - - -
23/10:30pm 28.3 ESE 10 16 1009.8 - 0.2 - - - - - - -
23/10:00pm 28.8 SE 8 15 1009.8 - 0.2 - - - - - - -
23/09:30pm 28.7 ESE 11 14 1009.7 - 0.2 - - - - - - -
23/09:00pm 28.8 ESE 9 13 1009.6 - 0.2 - - - - - - -
23/08:30pm 28.8 ESE 8 11 1009.6 - 0.2 - - - - - - -
23/08:00pm 28.8 ESE 8 12 1009.4 - 0.2 - - - - - - -
23/07:30pm 28.6 ESE 9 15 1009.0 - 0.2 - - - - - - -
23/07:00pm 28.5 ESE 9 13 1008.7 - 0.2 - - - - - - -
23/06:30pm 28.6 ESE 8 12 1008.3 - 0.2 - - - - - - -
23/06:00pm 29.0 ESE 7 11 1008.0 - 0.2 - - - - - - -
23/05:30pm 28.8 SE 8 13 1007.7 - 0.2 - - - - - - -
23/05:00pm 29.1 ESE 8 12 1007.1 - 0.2 - - - - - - -
23/04:30pm 29.0 SE 8 13 1006.9 - 0.2 - - - - - - -
23/04:00pm 29.1 SE 7 13 1007.0 - 0.2 - - - - - - -
23/03:30pm 30.4 ESE 7 11 1007.0 - 0.2 - - - - - - -
23/03:00pm 29.7 SE 7 11 1007.2 - 0.2 - - - - - - -
23/02:30pm 30.1 SE 7 11 1007.2 - 0.2 - - - - - - -
23/02:00pm 31.0 ESE 6 8 1007.4 - 0.2 - - - - - - -
23/01:30pm 30.2 E 4 7 1007.7 - 0.2 - - - - - - -
23/01:00pm 28.8 S 7 9 1008.3 - 0.2 - - - - - - -
23/12:30pm 28.3 S 9 11 1008.8 - 0.2 - - - - - - -
23/12:00pm 28.4 S 10 12 1009.3 - 0.2 - - - - - - -
23/11:30am 28.1 S 10 11 1009.8 - 0.2 - - - - - - -
23/11:00am 28.0 S 8 11 1010.3 - 0.2 - - - - - - -
23/10:30am 28.1 SSW 7 9 1010.4 - 0.2 - - - - - - -
23/10:00am 27.4 SSW 7 9 1010.5 - 0.2 - - - - - - -
23/09:30am 27.1 SSW 7 9 1010.3 - 0.0 - - - - - - -
23/09:00am 26.6 SW 8 9 1010.2 - 4.8 - - - - - - -
23/08:30am 26.1 WSW 7 8 1010.0 - 4.8 - - - - - - -
23/08:00am 25.5 SW 9 11 1009.7 - 4.8 - - - - - - -
23/07:30am 25.2 WSW 10 11 1009.6 - 4.8 - - - - - - -
23/07:00am 24.7 WSW 11 13 1009.2 - 4.8 - - - - - - -
23/06:30am 25.0 SW 11 13 1008.7 - 4.8 - - - - - - -
23/06:00am 25.5 WSW 9 12 1008.7 - 4.8 Recent precip. - - - - - -
23/05:30am 25.8 SW 8 10 1008.2 - 4.8 - - - - - - -
23/05:00am 25.1 SW 9 11 1008.0 - 4.6 - - - - - - -
23/04:30am 24.6 WSW 12 13 1008.0 - 4.6 - - - - - - -
23/04:00am 24.5 WSW 11 13 1007.9 - 4.4 - - - - - - -
23/03:30am 25.2 WNW 4 8 1008.0 - 4.2 - - - - - - -
23/03:00am 25.5 N 4 6 1008.0 - 3.4 Recent precip. - - - - - -
23/02:30am 25.4 SE 6 14 1008.3 - 3.4 - - - - - - -
23/02:00am 24.7 WSW 12 18 1009.1 - 2.8 - - - - - - -
23/01:36am 25.6 SW 14 23 1009.5 - 2.2 - - - - - - -
23/01:30am 26.2 WSW 8 12 1009.2 - 2.0 - - - - - - -
23/01:00am 26.9 N 4 9 1009.4 - 1.2 - - - - - - -
23/12:30am 26.9 ENE 15 20 1008.9 - 1.2 - - - - - - -
23/12:26am 27.1 ENE 15 20 1008.8 - 1.2 - - - - - - -
23/12:00am 28.3 NNW 4 6 1009.2 - 1.2 Recent precip. - - - - - -

Other Formats:

Comma delimited format used in spreadsheet applications
http://www.bom.gov.au/fwo/IDQ60701/IDQ60701.94295.axf

JavaScript Object Notation format (JSON) in row-major order
http://www.bom.gov.au/fwo/IDQ60701/IDQ60701.94295.json